x

New London Ledge Ct - Ledge Light Weather Station (ldlc3) Weather Station

8:45 - Tue 28th Jul 2015 All times are EDT. -4 hours from GMT.

  • Wind
    7mph, 8mph gusts
  • Luft Temp 72°f
  • Sea Pressure 1015.5mb
  • New London Ledge Ct - Ledge Light Weather Station
  • New London Ledge Ct - Ledge Light Weather Station

More Historic Weather Station data

Upgrade to MSW Pro to gain access to the past 30 days of data for over 8000 Wavebouys and Weather Stations around the globe.

Join Pro

Comparision Forecast

View Surf forecast
   
Di 07/28 8:45 7 8 mph 1015.5mb 72f
8:30 5 8 mph 1015.6mb 72f
8:15 6 7 mph 1015.7mb 72f
8:00 6 7 mph 1015.8mb 72f
7:45 7 8 mph 1015.6mb 72f
7:30 7 9 mph 1015.7mb 73f
7:15 10 11 mph 1015.7mb 73f
7:00 10 11 mph 1015.6mb 72f
6:45 7 10 mph 1015.6mb 71f
6:30 2 5 mph 1015.6mb 70f
6:15 2 5 mph 1015.7mb 71f
6:00 3 5 mph 1015.7mb 71f
5:45 1 2 mph 1015.5mb 71f
5:30  -  1 mph 1015.5mb 71f
5:15 2 3 mph 1015.5mb 71f
5:00 1 2 mph 1015.5mb 71f
4:45 3 5 mph 1015.5mb 71f
4:30 3
mph
1015.6mb 71f
4:15 5
mph
1015.5mb 71f
4:00 3 5 mph 1015.5mb 71f
3:45 1 2 mph 1015.6mb 71f
3:30 2 3 mph 1015.6mb 72f
3:15 2 3 mph 1015.7mb 71f
3:00 3
mph
1015.7mb 71f
2:45 5 6 mph 1015.8mb 71f
2:30 6
mph
1015.8mb 71f
2:15 7 8 mph 1015.8mb 71f
2:00 7 8 mph 1015.6mb 71f
1:45 7 8 mph 1015.7mb 71f
1:30 5 6 mph 1015.8mb 71f
1:15 5 6 mph 1016.2mb 71f
1:00 5 6 mph 1016.3mb 71f
Mo 07/27 7:45  -  1 mph 1015.9mb 73f
7:30 2 3 mph 1015.7mb 73f
7:15 9 11 mph 1015.4mb 73f
7:00 13 15 mph 1015.2mb 73f
6:45 13 14 mph 1015.2mb 74f
6:30 14 15 mph 1015.3mb 74f
6:15 14
mph
1015.6mb 74f
6:00 15
mph
1015.8mb 74f
5:45 13 14 mph 1015.8mb 73f
5:30 14 15 mph 1015.7mb 74f
5:15 13 14 mph 1015.9mb 74f
5:00 11
mph
1015.8mb 74f
4:45 9 10 mph 1016mb 73f
4:30 9
mph
1016mb 73f
4:15 3 6 mph 1016.2mb 73f
4:00 7 8 mph 1016mb 73f
3:45 7
mph
1016.5mb 72f
3:30 8 9 mph 1016.2mb 71f
3:15 8
mph
1016.2mb 72f
3:00 7
mph
1016.4mb 72f
2:45 6
mph
1016.5mb 72f
2:30 5 6 mph 1016.6mb 71f
2:15 3 5 mph 1016.7mb 71f
2:00 5
mph
1017mb 70f
1:45 6
mph
1017mb 70f
1:30 5 6 mph 1017.3mb 70f
1:15 6 7 mph 1017.3mb 69f
1:00 10 11 mph 1017.4mb 70f
12:45 11 13 mph 1017.3mb 70f
12:30 10 11 mph 1017.2mb 69f
12:15 7 8 mph 1017.3mb 70f
12:00 3 5 mph 1017.5mb 69f
11:45 2 5 mph 1017.5mb 69f
11:30 3
mph
1017mb 70f
11:15 6 7 mph 1017.2mb 70f
11:00 8 9 mph 1017.3mb 70f
10:45 13 15 mph 1017mb 70f
10:30 8 9 mph 1017.3mb 70f
10:15 8 9 mph 1017.4mb 70f
10:00 8 9 mph 1017.1mb 70f
9:45 8 9 mph 1017.3mb 71f
9:30 5 6 mph 1017mb 71f
9:15 5 7 mph 1017mb 70f
9:00 6 7 mph 1016.9mb 71f
8:45 5
mph
1016.5mb 71f
8:30 6
mph
1016.5mb 71f
8:15 5 6 mph 1016.4mb 71f
8:00 8 9 mph 1016.3mb 71f
7:45 7 8 mph 1016.1mb 72f
7:30 7
mph
1016.1mb 72f
7:15 5 6 mph 1016mb 72f
7:00 6
mph
1015.8mb 72f
6:45 8 10 mph 1015.8mb 72f
6:30 8 9 mph 1015.6mb 72f
6:15 6 9 mph 1015.5mb 72f
6:00 8 10 mph 1015.4mb 72f
5:45 6 7 mph 1015.4mb 72f
5:30 7 9 mph 1015.3mb 72f
5:15 10 14 mph 1015.1mb 72f
5:00 8 9 mph 1015.1mb 72f
4:45 13 16 mph 1015mb 73f
4:30 10 13 mph 1015mb 72f
4:15 13 14 mph 1014.8mb 73f
4:00 10 14 mph 1015mb 72f
3:45 23 28 mph 1014.6mb 74f
3:30 23 25 mph 1014.7mb 73f
3:15 15 16 mph 1015mb 72f
3:00 15 17 mph 1015mb 71f
2:45 22 24 mph 1014.8mb 73f
2:30 24 30 mph 1015mb 72f
2:15 10
mph
1015.4mb 72f
2:00 11 13 mph 1015.3mb 73f
1:45 11
mph
1015.3mb 73f
1:30 13 14 mph 1015.3mb 73f
1:15 13
mph
1015.4mb 73f
1:00 14 15 mph 1015.4mb 73f
So 07/26 7:45 10 11 mph 1015.3mb 74f
7:30 8 13 mph 1015.4mb 73f
7:15 8 15 mph 1015.3mb 73f
7:00 6 8 mph 1015.3mb 72f
6:45 11 13 mph 1015mb 73f
6:30 13 15 mph 1014.7mb 73f
6:15 13 14 mph 1014.5mb 73f
6:00 13 14 mph 1014.7mb 73f
5:45 11 13 mph 1014.8mb 74f
5:30 14 15 mph 1014.7mb 74f
5:15 11 13 mph 1014.7mb 74f
5:00 11
mph
1014.9mb 74f
4:45 10 11 mph 1015mb 74f
4:30 14 16 mph 1014.9mb 74f
4:15 15 17 mph 1014.9mb 75f
4:00 14 18 mph 1015.1mb 75f
3:45 14 16 mph 1015.1mb 75f
3:30 14 15 mph 1015.1mb 75f
3:15 15 16 mph 1015mb 74f
3:00 16 17 mph 1014.9mb 74f
2:45 17 20 mph 1014.9mb 74f
2:30 14 15 mph 1015.2mb 74f
2:15 14 16 mph 1015.2mb 74f
2:00 14 15 mph 1015.3mb 74f
1:45 14 15 mph 1015.4mb 74f
1:30 8 10 mph 1015.6mb 73f
1:15 7
mph
1015.7mb 73f
1:00 6 7 mph 1015.7mb 73f
12:45 5 6 mph 1015.7mb 72f
12:30 6
mph
1015.7mb 72f
12:15 7 8 mph 1015.7mb 72f
12:00 7 9 mph 1015.7mb 72f
11:45 9 11 mph 1015.7mb 72f
11:30 7 8 mph 1016.3mb 72f
11:15 9 11 mph 1016mb 72f
11:00 8 9 mph 1016mb 72f
10:45 5 6 mph 1016.2mb 71f
10:30 7 8 mph 1016.2mb 71f
10:15 10 13 mph 1016.1mb 72f
10:00 9 10 mph 1016.3mb 71f
9:45 7
mph
1016.4mb 70f
9:30 6 7 mph 1016.5mb 71f
9:15 6 7 mph 1016.3mb 71f
9:00 1 2 mph 1016.5mb 70f
8:45 6 7 mph 1016.4mb 70f
8:30 6 8 mph 1016.3mb 70f
8:15 7 8 mph 1016.2mb 71f
8:00 7 8 mph 1016.1mb 70f
7:45 8 9 mph 1016mb 70f
7:30 9 11 mph 1015.8mb 70f
7:15 8 9 mph 1015.8mb 70f
7:00 8 9 mph 1015.7mb 69f
6:45 9 10 mph 1015.8mb 69f
6:30 9 10 mph 1015.7mb 69f
6:15 10
mph
1015.6mb 69f
6:00 9 10 mph 1015.5mb 69f
5:45 10 11 mph 1015.3mb 69f
5:30 10 11 mph 1015.3mb 69f
5:15 9 10 mph 1015.3mb 69f
5:00 9 10 mph 1015.3mb 69f
4:45 11
mph
1015.3mb 69f
4:30 11 13 mph 1015.3mb 69f
4:15 9 10 mph 1015.5mb 68f
4:00 9 10 mph 1015.7mb 68f
3:45 9 10 mph 1015.8mb 68f
3:30 10 11 mph 1015.6mb 68f
3:15 10 11 mph 1015.6mb 68f
3:00 10 13 mph 1015.7mb 68f
2:45 10 11 mph 1015.7mb 68f
2:30 10 11 mph 1015.8mb 68f
2:15 10 11 mph 1016mb 68f
2:00 9 11 mph 1016.1mb 68f
1:45 9 10 mph 1016.2mb 68f
1:30 10 11 mph 1016mb 68f
1:15 10 11 mph 1016.3mb 68f
1:00 9 10 mph 1016.4mb 68f
Sa 07/25 7:45 10 11 mph 1015.9mb 69f
7:30 11 14 mph 1015.9mb 69f
7:15 10 11 mph 1015.9mb 69f
7:00 11 13 mph 1015.8mb 70f
6:45 13 14 mph 1015.7mb 70f
6:30 13 14 mph 1015.7mb 70f
6:15 13 15 mph 1015.5mb 70f
6:00 11 13 mph 1015.7mb 70f
5:45 11 13 mph 1015.8mb 70f
5:30 13 14 mph 1015.9mb 70f
5:15 13 14 mph 1015.9mb 70f
5:00 14 15 mph 1015.8mb 70f
4:45 13 14 mph 1016mb 70f
4:30 13 15 mph 1016mb 70f
4:15 11 14 mph 1015.9mb 71f
4:00 13 14 mph 1015.9mb 70f
3:45 13 14 mph 1015.8mb 71f
3:30 11 14 mph 1015.8mb 71f
3:15 13 14 mph 1015.9mb 70f
3:00 14 16 mph 1015.5mb 71f
2:45 13 14 mph 1015.4mb 71f
2:30 13 15 mph 1015.3mb 71f
2:15 11 14 mph 1015.6mb 71f
2:00 14 16 mph 1015.5mb 71f
1:45 14 15 mph 1015.8mb 70f
1:30 10 11 mph 1015.9mb 71f
1:15 11 13 mph 1015.9mb 71f
1:00 7 8 mph 1015.9mb 72f
12:45 9
mph
1015.8mb 72f
12:30 8 9 mph 1015.9mb 73f
12:15 6 7 mph 1015.9mb 72f
12:00 3 5 mph 1016mb 72f
11:45 5 6 mph 1016mb 72f
11:30 6 7 mph 1015.9mb 72f
11:15 6 7 mph 1016mb 71f
11:00 6
mph
1016.1mb 71f
10:45 7
mph
1016mb 70f
10:30 6 7 mph 1016.1mb 70f
10:15 5 6 mph 1016mb 71f
10:00 6 7 mph 1016.1mb 71f
9:45 7
mph
1016.1mb 70f
9:30 6 7 mph 1015.9mb 70f
9:15 3 5 mph 1015.8mb 71f
9:00 5
mph
1015.7mb 71f
8:45 5 6 mph 1015.7mb 69f
8:30 8 10 mph 1015.5mb 69f
8:15 7 11 mph 1015.4mb 70f
8:00 8 11 mph 1015.4mb 69f
7:45 10 13 mph 1015.1mb 68f
7:30 13 15 mph 1015mb 67f
7:15 13 15 mph 1014.9mb 67f
7:00 10 11 mph 1015.1mb 67f
6:45 13 14 mph 1015mb 66f
6:30 13 14 mph 1015mb 65f
6:15 6 9 mph 1014.9mb 65f
6:00 11 13 mph 1014.6mb 65f
5:45 10 11 mph 1014.4mb 64f
5:30 11 13 mph 1014.2mb 65f
5:15 13 14 mph 1013.9mb 65f
5:00 9 11 mph 1013.9mb 65f
4:45 11 13 mph 1013.8mb 65f
4:30 10 11 mph 1013.7mb 65f
4:15 10 11 mph 1013.7mb 65f
4:00 13 14 mph 1013.5mb 65f
3:45 14 15 mph 1013.3mb 65f
3:30 14 15 mph 1013.4mb 65f
3:15 14 15 mph 1013.2mb 65f
3:00 13 14 mph 1013.1mb 65f
2:45 14 15 mph 1013.1mb 65f
2:30 14 15 mph 1013.2mb 66f
2:15 15 16 mph 1013.1mb 66f
2:00 13 14 mph 1013.1mb 67f
1:45 10 11 mph 1013.1mb 67f
1:30 9 10 mph 1013.2mb 67f
1:15 7 9 mph 1013.1mb 67f
1:00 7 8 mph 1013.2mb 68f
Fr 07/24 7:45 14 17 mph 1013.4mb 68f
7:30 14 24 mph 1013.2mb 70f
7:15 9 10 mph 1012.7mb 76f
7:00 11 13 mph 1012.1mb 75f
6:45 14 15 mph 1012mb 75f
6:30 13 14 mph 1012mb 75f
6:15 14 16 mph 1011.9mb 75f
6:00 11 14 mph 1011.8mb 74f
5:45 14 16 mph 1011.8mb 73f
5:30 13 16 mph 1011.8mb 73f
5:15 10 13 mph 1011.7mb 72f
5:00 14 15 mph 1011.6mb 73f
4:45 15 16 mph 1011.7mb 73f
4:30 14 15 mph 1011.8mb 73f
4:15 14 16 mph 1011.7mb 72f
4:00 13 15 mph 1011.8mb 72f
3:45 13 15 mph 1011.8mb 74f
3:30 10 11 mph 1011.7mb 74f
3:15 13
mph
1012.1mb 74f
3:00 9 11 mph 1012.1mb 74f
2:45 10 11 mph 1012.1mb 74f
2:30 13 14 mph 1012.1mb 74f
2:15 13 14 mph 1012.3mb 74f
2:00 13 15 mph 1012.4mb 73f